Terminal Aerodrome Forecast
Issued by NWS

Home | Current Version | Previous Version | Text Only | Print | Product List | Glossary On
Versions: 1 2 3 4 5 6 7 8 9 10 11 12 13 14
000
FTUS45 KTFX 291120
TAFCTB
TAF
KCTB 291120Z 2912/3012 24009KT P6SM SCT070
     FM291600 25013KT P6SM VCSH SCT050 BKN100
     FM292000 24015G25KT P6SM SCT040 BKN090
     FM300300 23009KT P6SM VCSH SCT025 BKN150=

USA.gov is the U.S. government's official web portal to all federal, state and local government web resources and services.